Terminal Aerodrome Forecast
Issued by NWS

Current Version | Previous Version | Text Only | Print | Product List | Glossary On
Versions: 1 2 3 4 5 6 7 8 9 10 11 12
000
FTUS42 TJSJ 281139
TAFJSJ
TAF
TJSJ 281139Z 2812/2912 09010KT P6SM FEW025
     FM281430 07018KT P6SM FEW030
     FM282230 10007KT P6SM FEW025=

USA.gov is the U.S. government's official web portal to all federal, state and local government web resources and services.